createdAt,value
2022-11-26T00:00:55.205Z,96.39
2022-11-26T00:03:23.543Z,95.60
2022-11-26T00:05:55.588Z,95.58
2022-11-26T00:08:29.492Z,95.17
2022-11-26T00:10:58.815Z,95.13
2022-11-26T00:13:28.611Z,94.99
2022-11-26T00:15:57.548Z,94.79
2022-11-26T00:18:26.738Z,95.04
2022-11-26T00:21:00.886Z,94.86
2022-11-26T00:23:29.934Z,94.57
2022-11-26T00:26:00.567Z,95.15
2022-11-26T00:28:31.996Z,94.85
2022-11-26T00:31:02.020Z,94.50
2022-11-26T00:33:30.886Z,94.28
2022-11-26T00:36:03.492Z,94.84
2022-11-26T00:38:32.707Z,94.95
2022-11-26T00:41:00.728Z,95.29
2022-11-26T00:43:28.608Z,95.34
2022-11-26T00:45:57.010Z,95.32
2022-11-26T00:48:24.919Z,95.39
2022-11-26T00:50:53.150Z,95.50
2022-11-26T00:53:26.704Z,95.19
2022-11-26T00:55:54.563Z,95.11
2022-11-26T00:58:25.187Z,95.49
2022-11-26T01:00:53.929Z,95.30
2022-11-26T01:03:21.907Z,95.07
2022-11-26T01:05:51.704Z,95.97
2022-11-26T01:08:27.304Z,96.35
2022-11-26T01:10:55.149Z,96.35
2022-11-26T01:13:23.132Z,96.59
2022-11-26T01:15:51.077Z,96.37
2022-11-26T01:18:21.490Z,96.25
2022-11-26T01:20:49.782Z,96.66
2022-11-26T01:23:19.545Z,96.20
2022-11-26T01:25:49.313Z,95.96
2022-11-26T01:28:18.984Z,95.37
2022-11-26T01:30:47.488Z,94.80
2022-11-26T01:33:15.405Z,95.13
2022-11-26T01:35:43.227Z,94.52
2022-11-26T01:38:14.050Z,94.36
2022-11-26T01:41:03.754Z,94.53
2022-11-26T01:43:37.705Z,94.25
2022-11-26T01:46:14.952Z,94.24
2022-11-26T01:48:43.409Z,93.82
2022-11-26T01:51:12.987Z,94.23
2022-11-26T01:53:47.761Z,94.34
2022-11-26T01:56:27.034Z,95.37
2022-11-26T01:58:59.429Z,95.39
2022-11-26T02:01:27.389Z,95.72
2022-11-26T02:04:01.674Z,96.26
2022-11-26T02:06:34.025Z,95.90
2022-11-26T02:09:03.914Z,95.75
2022-11-26T02:11:33.341Z,95.77
2022-11-26T02:14:05.858Z,95.11
2022-11-26T02:17:14.628Z,95.20
2022-11-26T02:20:11.566Z,96.06
2022-11-26T02:23:03.383Z,95.43
2022-11-26T02:25:52.821Z,95.99
2022-11-26T02:28:39.494Z,95.71
2022-11-26T02:31:13.943Z,96.69
2022-11-26T02:33:53.355Z,97.61
2022-11-26T02:36:26.269Z,97.06
2022-11-26T02:38:54.381Z,97.01
2022-11-26T02:41:22.420Z,97.50
2022-11-26T02:43:50.790Z,97.58
2022-11-26T02:46:21.359Z,97.82
2022-11-26T02:48:53.149Z,97.59
2022-11-26T02:51:25.128Z,97.67
2022-11-26T02:53:54.226Z,97.94
2022-11-26T02:56:25.565Z,98.13
2022-11-26T02:58:55.583Z,98.42
2022-11-26T03:01:31.788Z,98.73
2022-11-26T03:04:03.389Z,98.79
2022-11-26T03:06:34.010Z,98.55
2022-11-26T03:09:02.202Z,98.21
2022-11-26T03:11:30.234Z,98.80
2022-11-26T03:13:58.250Z,98.63
2022-11-26T03:16:27.681Z,98.85
2022-11-26T03:18:55.604Z,98.61
2022-11-26T03:21:23.581Z,97.22
2022-11-26T03:23:51.541Z,97.50
2022-11-26T03:26:19.522Z,97.27
2022-11-26T03:28:47.563Z,98.13
2022-11-26T03:31:15.574Z,97.15
2022-11-26T03:33:44.984Z,97.58
2022-11-26T03:36:12.982Z,97.38
2022-11-26T03:38:40.884Z,97.68
2022-11-26T03:41:08.914Z,97.20
2022-11-26T03:43:36.891Z,97.09
2022-11-26T03:46:04.966Z,97.00
2022-11-26T03:48:33.016Z,96.77
2022-11-26T03:51:02.484Z,96.91
2022-11-26T03:53:30.433Z,96.66
2022-11-26T03:55:58.414Z,96.19
2022-11-26T03:58:26.454Z,96.80
2022-11-26T04:00:54.358Z,96.17
2022-11-26T04:03:22.458Z,96.63
2022-11-26T04:05:50.497Z,96.84
2022-11-26T04:08:19.885Z,96.91
2022-11-26T04:10:47.806Z,96.91
2022-11-26T04:13:15.786Z,96.76
2022-11-26T04:15:43.786Z,97.31
2022-11-26T04:18:11.836Z,97.35
2022-11-26T04:20:39.746Z,96.31
2022-11-26T04:23:07.761Z,96.25
2022-11-26T04:25:37.331Z,96.29
2022-11-26T04:28:05.559Z,96.19
2022-11-26T04:30:33.558Z,96.05
2022-11-26T04:33:01.623Z,96.08
2022-11-26T04:35:29.579Z,96.58
2022-11-26T04:37:57.605Z,96.81
2022-11-26T04:40:25.602Z,97.24
2022-11-26T04:42:54.994Z,97.83
2022-11-26T04:45:23.007Z,98.40
2022-11-26T04:47:50.977Z,98.30
2022-11-26T04:50:19.125Z,98.04
2022-11-26T04:52:48.432Z,97.87
2022-11-26T04:55:17.227Z,95.89
2022-11-26T04:57:48.788Z,95.02
2022-11-26T05:00:19.919Z,95.97
2022-11-26T05:02:47.913Z,95.50
2022-11-26T05:05:16.026Z,95.42
2022-11-26T05:07:44.066Z,96.03
2022-11-26T05:10:13.348Z,96.74
2022-11-26T05:12:41.321Z,96.70
2022-11-26T05:15:10.136Z,96.45
2022-11-26T05:17:39.474Z,96.00
2022-11-26T05:20:08.748Z,96.29
2022-11-26T05:22:36.984Z,96.38
2022-11-26T05:25:07.327Z,95.55
2022-11-26T05:27:35.493Z,95.72
2022-11-26T05:30:03.844Z,95.61
2022-11-26T05:32:31.705Z,94.66
2022-11-26T05:35:00.954Z,95.09
2022-11-26T05:37:28.822Z,95.23
2022-11-26T05:39:56.776Z,94.13
2022-11-26T05:42:24.644Z,93.21
2022-11-26T05:44:52.458Z,93.11
2022-11-26T05:47:20.298Z,93.08
2022-11-26T05:49:48.175Z,93.47
2022-11-26T05:52:17.382Z,93.50
2022-11-26T05:54:45.205Z,93.64
2022-11-26T05:57:13.283Z,93.96
2022-11-26T05:59:41.197Z,94.03
2022-11-26T06:02:09.380Z,92.97
2022-11-26T06:04:37.658Z,92.65
2022-11-26T06:07:06.401Z,93.35
2022-11-26T06:09:36.408Z,92.58
2022-11-26T06:12:05.049Z,92.48
2022-11-26T06:14:33.112Z,93.03
2022-11-26T06:17:01.607Z,92.27
2022-11-26T06:19:29.491Z,91.88
2022-11-26T06:21:57.339Z,91.76
2022-11-26T06:24:25.196Z,92.95
2022-11-26T06:26:54.460Z,92.06
2022-11-26T06:29:27.688Z,92.91
2022-11-26T06:31:56.293Z,92.28
2022-11-26T06:34:24.458Z,92.80
2022-11-26T06:36:52.645Z,93.51
2022-11-26T06:39:20.544Z,94.20
2022-11-26T06:41:48.570Z,92.87
2022-11-26T06:44:17.808Z,92.31
2022-11-26T06:46:45.683Z,92.13
2022-11-26T06:49:13.540Z,92.99
2022-11-26T06:51:41.388Z,91.84
2022-11-26T06:54:09.282Z,92.32
2022-11-26T06:56:37.162Z,92.09
2022-11-26T06:59:05.166Z,92.36
2022-11-26T07:01:34.452Z,93.41
2022-11-26T07:04:02.567Z,92.82
2022-11-26T07:06:32.336Z,92.89
2022-11-26T07:09:04.277Z,93.37
2022-11-26T07:11:32.381Z,93.93
2022-11-26T07:14:01.500Z,92.78
2022-11-26T07:16:29.782Z,93.09
2022-11-26T07:19:02.985Z,92.24
2022-11-26T07:21:32.315Z,92.98
2022-11-26T07:24:00.433Z,93.87
2022-11-26T07:26:28.317Z,93.68
2022-11-26T07:28:56.181Z,92.96
2022-11-26T07:31:24.968Z,93.44
2022-11-26T07:33:53.082Z,94.32
2022-11-26T07:36:24.752Z,94.66
2022-11-26T07:38:55.483Z,95.17
2022-11-26T07:41:24.375Z,94.96
2022-11-26T07:43:53.133Z,95.94
2022-11-26T07:46:23.054Z,96.45
2022-11-26T07:48:51.624Z,96.43
2022-11-26T07:51:22.037Z,95.33
2022-11-26T07:53:51.707Z,95.66
2022-11-26T07:56:20.179Z,96.11
2022-11-26T07:58:48.602Z,95.71
2022-11-26T08:01:18.147Z,95.83
2022-11-26T08:03:48.692Z,95.47
2022-11-26T08:06:18.790Z,95.84
2022-11-26T08:08:47.194Z,96.75
2022-11-26T08:11:18.625Z,96.58
2022-11-26T08:13:47.304Z,96.82
2022-11-26T08:16:16.580Z,98.04
2022-11-26T08:18:44.601Z,97.75
2022-11-26T08:21:12.452Z,98.07
2022-11-26T08:23:40.493Z,97.33
2022-11-26T08:28:59.736Z,97.58
2022-11-26T08:31:28.408Z,96.48
2022-11-26T08:33:58.952Z,96.29
2022-11-26T08:36:27.482Z,96.42
2022-11-26T08:38:55.427Z,96.97
2022-11-26T08:41:23.675Z,97.33
2022-11-26T08:44:08.054Z,97.21
2022-11-26T08:46:38.173Z,96.49
2022-11-26T08:49:07.367Z,97.41
2022-11-26T08:51:35.739Z,97.09
2022-11-26T08:54:03.625Z,98.03
2022-11-26T08:56:31.549Z,97.79
2022-11-26T08:58:59.551Z,98.16
2022-11-26T09:01:29.794Z,99.03
2022-11-26T09:04:00.809Z,98.60
2022-11-26T09:06:30.265Z,97.96
2022-11-26T09:09:14.141Z,98.36
2022-11-26T09:11:44.801Z,98.40
2022-11-26T09:14:13.723Z,98.23
2022-11-26T09:16:41.979Z,99.07
2022-11-26T09:19:13.210Z,98.05
2022-11-26T09:21:41.085Z,98.22
2022-11-26T09:24:09.047Z,97.95
2022-11-26T09:26:37.018Z,98.32
2022-11-26T09:29:05.429Z,97.49
2022-11-26T09:31:33.757Z,98.02
2022-11-26T09:34:02.896Z,97.75
2022-11-26T09:36:32.615Z,97.10
2022-11-26T09:39:00.956Z,97.37
2022-11-26T09:41:40.991Z,97.13
2022-11-26T09:44:25.334Z,97.14
2022-11-26T09:47:12.095Z,96.27
2022-11-26T09:49:49.861Z,96.70
2022-11-26T09:52:22.130Z,96.02
2022-11-26T09:54:54.528Z,96.48
2022-11-26T09:57:28.837Z,96.46
2022-11-26T09:59:57.293Z,96.46
2022-11-26T10:02:25.953Z,95.88
2022-11-26T10:04:54.095Z,94.94
2022-11-26T10:07:42.360Z,94.47
2022-11-26T10:10:17.696Z,93.97
2022-11-26T10:13:17.930Z,94.79
2022-11-26T10:15:56.549Z,94.52
2022-11-26T10:18:34.826Z,94.43
2022-11-26T10:21:14.590Z,93.91
2022-11-26T10:23:48.876Z,93.46
2022-11-26T10:26:18.807Z,92.79
2022-11-26T10:28:48.488Z,93.33
2022-11-26T10:31:21.992Z,92.18
2022-11-26T10:33:55.596Z,91.99
2022-11-26T10:36:26.893Z,91.87
2022-11-26T10:38:57.354Z,91.91
2022-11-26T10:41:30.754Z,92.11
2022-11-26T10:44:32.320Z,91.92
2022-11-26T10:47:01.487Z,90.53
2022-11-26T10:49:30.672Z,90.83
2022-11-26T10:52:01.727Z,90.87
2022-11-26T10:54:34.957Z,90.72
2022-11-26T10:57:07.294Z,90.75
2022-11-26T10:59:40.966Z,91.33
2022-11-26T11:02:27.484Z,91.12
2022-11-26T11:04:57.770Z,90.74
2022-11-26T11:07:31.574Z,90.38
2022-11-26T11:10:06.653Z,90.96
2022-11-26T11:12:34.691Z,90.44
2022-11-26T11:15:20.912Z,89.41
2022-11-26T11:17:56.760Z,89.49
2022-11-26T11:20:30.166Z,89.07
2022-11-26T11:23:01.183Z,89.18
2022-11-26T11:25:33.483Z,89.76
2022-11-26T11:28:12.082Z,90.06
2022-11-26T11:30:41.931Z,90.01
2022-11-26T11:33:20.840Z,90.10
2022-11-26T11:36:07.919Z,89.17
2022-11-26T11:38:48.338Z,88.61
2022-11-26T11:41:24.704Z,88.50
2022-11-26T11:43:58.642Z,87.78
2022-11-26T11:47:03.809Z,87.33
2022-11-26T11:49:46.841Z,85.30
2022-11-26T11:52:24.743Z,83.49
2022-11-26T11:55:00.174Z,82.76
2022-11-26T11:57:49.302Z,81.87
2022-11-26T12:00:19.699Z,79.99
2022-11-26T12:03:01.103Z,79.18
2022-11-26T12:05:57.076Z,80.04
2022-11-26T12:08:37.842Z,80.72
2022-11-26T12:11:31.261Z,81.64
2022-11-26T12:14:05.226Z,82.13
2022-11-26T12:16:38.298Z,80.23
2022-11-26T12:19:13.317Z,81.20
2022-11-26T12:21:46.833Z,80.65
2022-11-26T12:24:21.482Z,80.06
2022-11-26T12:26:56.340Z,80.57
2022-11-26T12:29:34.782Z,80.75
2022-11-26T12:32:12.519Z,79.58
2022-11-26T12:34:45.799Z,79.06
2022-11-26T12:37:20.485Z,80.12
2022-11-26T12:39:56.344Z,78.05
2022-11-26T12:42:29.054Z,78.14
2022-11-26T12:45:17.477Z,78.42
2022-11-26T12:47:51.761Z,79.51
2022-11-26T12:50:27.295Z,78.65
2022-11-26T12:53:03.907Z,80.08
2022-11-26T12:55:39.826Z,79.07
2022-11-26T12:58:15.463Z,78.90
2022-11-26T13:00:45.366Z,78.83
2022-11-26T13:03:16.889Z,79.31
2022-11-26T13:05:52.738Z,78.79
2022-11-26T13:08:32.905Z,78.45
2022-11-26T13:11:26.198Z,78.15
2022-11-26T13:14:01.546Z,77.96
2022-11-26T13:16:37.875Z,77.44
2022-11-26T13:19:12.223Z,78.54
2022-11-26T13:22:01.531Z,78.84
2022-11-26T13:24:47.077Z,78.41
2022-11-26T13:27:39.467Z,78.07
2022-11-26T13:30:21.154Z,78.58
2022-11-26T13:33:13.967Z,77.62
2022-11-26T13:36:01.533Z,77.34
2022-11-26T13:38:40.934Z,78.54
2022-11-26T13:41:23.093Z,79.17
2022-11-26T13:44:24.296Z,78.20
2022-11-26T13:46:58.174Z,78.89
2022-11-26T13:49:34.255Z,78.88
2022-11-26T13:52:07.522Z,79.58
2022-11-26T13:54:40.129Z,78.84
2022-11-26T13:57:12.818Z,78.48
2022-11-26T13:59:46.793Z,78.57
2022-11-26T14:02:44.510Z,77.25
2022-11-26T14:05:16.030Z,78.09
2022-11-26T14:07:44.780Z,78.50
2022-11-26T14:10:41.488Z,79.18
2022-11-26T14:13:16.022Z,79.30
2022-11-26T14:16:08.030Z,79.51
2022-11-26T14:19:00.610Z,77.35
2022-11-26T14:21:31.181Z,78.47
2022-11-26T14:24:01.173Z,79.40
2022-11-26T14:26:34.141Z,79.08
2022-11-26T14:29:12.568Z,79.66
2022-11-26T14:31:43.824Z,78.96
2022-11-26T14:34:18.306Z,79.16
2022-11-26T14:36:55.869Z,78.55
2022-11-26T14:39:24.169Z,78.99
2022-11-26T14:41:59.081Z,80.24
2022-11-26T14:44:33.849Z,81.34
2022-11-26T14:47:10.917Z,81.17
2022-11-26T14:49:41.242Z,82.76
2022-11-26T14:52:19.396Z,82.22
2022-11-26T14:54:50.224Z,81.66
2022-11-26T14:57:22.304Z,82.63
2022-11-26T14:59:57.414Z,83.67
2022-11-26T15:02:27.275Z,83.29
2022-11-26T15:04:59.579Z,83.70
2022-11-26T15:07:29.966Z,83.15
2022-11-26T15:10:06.332Z,84.32
2022-11-26T15:12:36.265Z,83.72
2022-11-26T15:15:05.957Z,84.87
2022-11-26T15:17:35.408Z,84.73
2022-11-26T15:20:07.515Z,84.90
2022-11-26T15:22:39.350Z,85.50
2022-11-26T15:25:17.686Z,85.02
2022-11-26T15:27:54.213Z,85.41
2022-11-26T15:30:25.898Z,85.36
2022-11-26T15:33:02.171Z,85.67
2022-11-26T15:35:32.533Z,85.85
2022-11-26T15:38:01.758Z,86.01
2022-11-26T15:40:33.981Z,86.56
2022-11-26T15:43:04.641Z,85.95
2022-11-26T15:45:38.739Z,86.33
2022-11-26T15:48:08.985Z,87.24
2022-11-26T15:50:38.407Z,86.69
2022-11-26T15:53:16.593Z,87.75
2022-11-26T15:55:48.539Z,87.15
2022-11-26T15:58:21.997Z,87.49
2022-11-26T16:00:54.110Z,87.29
2022-11-26T16:03:43.528Z,88.15
2022-11-26T16:06:28.147Z,88.23
2022-11-26T16:09:27.561Z,88.98
2022-11-26T16:12:00.051Z,88.83
2022-11-26T16:14:35.013Z,88.61
2022-11-26T16:17:08.692Z,88.48
2022-11-26T16:19:37.856Z,88.02
2022-11-26T16:22:07.483Z,88.64
2022-11-26T16:24:42.683Z,88.77
2022-11-26T16:27:26.667Z,88.50
2022-11-26T16:29:54.616Z,88.50
2022-11-26T16:32:22.607Z,88.55
2022-11-26T16:34:50.533Z,88.61
2022-11-26T16:37:22.722Z,88.38
2022-11-26T16:39:54.288Z,88.53
2022-11-26T16:42:23.982Z,89.03
2022-11-26T16:44:51.982Z,88.94
2022-11-26T16:47:27.081Z,88.95
2022-11-26T16:49:55.511Z,88.86
2022-11-26T16:52:23.714Z,89.16
2022-11-26T16:54:53.725Z,89.02
2022-11-26T16:57:23.640Z,89.40
2022-11-26T16:59:54.869Z,89.28
2022-11-26T17:02:24.779Z,89.62
2022-11-26T17:04:52.761Z,89.81
2022-11-26T17:07:24.702Z,89.37
2022-11-26T17:09:54.826Z,89.75
2022-11-26T17:12:24.403Z,90.06
2022-11-26T17:17:29.709Z,89.98
2022-11-26T17:19:57.780Z,90.63
2022-11-26T17:22:25.913Z,89.94
2022-11-26T17:24:55.247Z,90.32
2022-11-26T17:27:24.084Z,90.43
2022-11-26T17:29:52.355Z,90.31
2022-11-26T17:32:20.853Z,90.14
2022-11-26T17:34:49.065Z,90.31
2022-11-26T17:37:21.207Z,90.48
2022-11-26T17:39:49.222Z,90.52
2022-11-26T17:42:19.833Z,90.09
2022-11-26T17:44:48.019Z,91.03
2022-11-26T17:47:18.261Z,90.44
2022-11-26T17:49:47.198Z,90.02
2022-11-26T17:52:15.245Z,90.55
2022-11-26T17:54:43.446Z,90.77
2022-11-26T17:57:11.709Z,90.20
2022-11-26T17:59:41.679Z,90.18
2022-11-26T18:02:10.595Z,90.57
2022-11-26T18:04:38.805Z,91.49
2022-11-26T18:07:08.920Z,91.34
2022-11-26T18:09:37.332Z,91.86
2022-11-26T18:12:06.622Z,91.51
2022-11-26T18:14:35.640Z,91.21
2022-11-26T18:17:05.694Z,91.11
2022-11-26T18:19:33.565Z,91.02
2022-11-26T18:22:01.570Z,91.45
2022-11-26T18:24:29.594Z,91.41
2022-11-26T18:26:57.372Z,91.35
2022-11-26T18:29:25.869Z,91.37
2022-11-26T18:31:54.408Z,91.15
2022-11-26T18:34:24.048Z,91.63
2022-11-26T18:36:53.901Z,91.32
2022-11-26T18:39:22.525Z,91.36
2022-11-26T18:41:50.378Z,91.18
2022-11-26T18:44:18.198Z,91.88
2022-11-26T18:46:46.080Z,91.42
2022-11-26T18:49:13.962Z,91.03
2022-11-26T18:51:44.731Z,91.18
2022-11-26T18:54:16.610Z,92.04
2022-11-26T18:56:45.271Z,91.32
2022-11-26T18:59:14.337Z,90.62
2022-11-26T19:01:43.530Z,90.54
2022-11-26T19:04:12.620Z,91.29
2022-11-26T19:06:41.127Z,91.20
2022-11-26T19:09:15.996Z,91.09
2022-11-26T19:11:44.269Z,91.31
2022-11-26T19:14:13.277Z,91.18
2022-11-26T19:16:41.653Z,91.31
2022-11-26T19:19:09.804Z,90.90
2022-11-26T19:21:37.880Z,91.16
2022-11-26T19:24:08.043Z,90.53
2022-11-26T19:26:39.024Z,90.66
2022-11-26T19:29:07.923Z,90.80
2022-11-26T19:31:39.092Z,90.83
2022-11-26T19:34:10.055Z,90.50
2022-11-26T19:36:38.678Z,91.40
2022-11-26T19:39:08.406Z,91.29
2022-11-26T19:41:37.876Z,92.17
2022-11-26T19:44:07.025Z,92.26
2022-11-26T19:46:38.174Z,92.00
2022-11-26T19:49:05.997Z,91.96
2022-11-26T19:51:33.922Z,91.29
2022-11-26T19:54:01.853Z,91.88
2022-11-26T19:56:31.532Z,91.98
2022-11-26T19:59:02.344Z,91.70
2022-11-26T20:01:32.155Z,91.66
2022-11-26T20:04:01.717Z,90.94
2022-11-26T20:06:31.406Z,90.99
2022-11-26T20:09:00.066Z,90.81
2022-11-26T20:11:29.062Z,90.88
2022-11-26T20:13:57.841Z,89.98
2022-11-26T20:16:30.035Z,90.75
2022-11-26T20:18:59.142Z,90.54
2022-11-26T20:21:28.970Z,91.77
2022-11-26T20:23:59.818Z,91.48
2022-11-26T20:26:30.629Z,92.25
2022-11-26T20:29:02.270Z,93.06
2022-11-26T20:31:32.006Z,93.39
2022-11-26T20:34:03.120Z,94.01
2022-11-26T20:36:31.638Z,94.31
2022-11-26T20:39:03.839Z,94.62
2022-11-26T20:41:32.426Z,94.54
2022-11-26T20:44:00.317Z,94.95
2022-11-26T20:46:29.250Z,94.99
2022-11-26T20:48:58.906Z,94.96
2022-11-26T20:51:26.964Z,95.56
2022-11-26T20:53:58.386Z,95.96
2022-11-26T20:56:26.421Z,95.51
2022-11-26T20:58:54.319Z,97.12
2022-11-26T21:01:24.152Z,96.29
2022-11-26T21:03:52.760Z,96.89
2022-11-26T21:06:29.757Z,96.69
2022-11-26T21:08:58.448Z,96.72
2022-11-26T21:11:26.334Z,96.98
2022-11-26T21:13:54.268Z,96.68
2022-11-26T21:16:23.397Z,96.55
2022-11-26T21:18:54.313Z,97.20
2022-11-26T21:21:25.206Z,97.47
2022-11-26T21:23:53.748Z,96.25
2022-11-26T21:26:24.205Z,97.13
2022-11-26T21:28:52.706Z,97.09
2022-11-26T21:31:21.505Z,98.02
2022-11-26T21:33:55.970Z,97.54
2022-11-26T21:36:26.547Z,98.21
2022-11-26T21:38:54.588Z,97.50
2022-11-26T21:41:23.597Z,97.34
2022-11-26T21:43:52.326Z,97.47
2022-11-26T21:46:22.447Z,97.17
2022-11-26T21:48:50.667Z,97.80
2022-11-26T21:51:19.218Z,97.22
2022-11-26T21:53:49.874Z,97.76
2022-11-26T21:56:19.931Z,97.01
2022-11-26T21:58:48.551Z,97.43
2022-11-26T22:01:17.835Z,98.60
2022-11-26T22:03:47.632Z,98.50
2022-11-26T22:06:16.101Z,98.27
2022-11-26T22:08:44.186Z,97.90
2022-11-26T22:11:15.288Z,98.75
2022-11-26T22:13:43.419Z,99.84
2022-11-26T22:16:13.135Z,99.83
2022-11-26T22:18:42.679Z,100.00
2022-11-26T22:21:13.075Z,99.04
2022-11-26T22:23:41.227Z,99.89
2022-11-26T22:26:09.446Z,100.00
2022-11-26T22:28:39.646Z,100.00
2022-11-26T22:31:12.808Z,100.00
2022-11-26T22:33:40.864Z,99.94
2022-11-26T22:36:09.622Z,99.45
2022-11-26T22:38:38.012Z,100.00
2022-11-26T22:41:08.350Z,100.00
2022-11-26T22:43:36.671Z,100.00
2022-11-26T22:46:06.613Z,100.00
2022-11-26T22:48:35.094Z,100.00
2022-11-26T22:51:03.235Z,99.77
2022-11-26T22:53:33.254Z,100.00
2022-11-26T22:56:02.870Z,98.79
2022-11-26T22:58:32.348Z,98.92
2022-11-26T23:01:02.447Z,98.67
2022-11-26T23:03:33.846Z,99.22
2022-11-26T23:06:06.029Z,97.65
2022-11-26T23:08:34.367Z,97.76
2022-11-26T23:11:16.887Z,99.15
2022-11-26T23:13:46.385Z,98.87
2022-11-26T23:16:15.370Z,98.47
2022-11-26T23:18:44.783Z,98.89
2022-11-26T23:21:14.805Z,99.12
2022-11-26T23:23:43.509Z,98.37
2022-11-26T23:26:14.362Z,98.62
2022-11-26T23:28:42.761Z,97.91
2022-11-26T23:31:15.996Z,98.81
2022-11-26T23:33:45.738Z,98.23
2022-11-26T23:36:14.144Z,97.55
2022-11-26T23:38:42.152Z,97.70
2022-11-26T23:41:10.083Z,98.35
2022-11-26T23:43:39.911Z,98.67
2022-11-26T23:46:11.649Z,98.40
2022-11-26T23:48:39.726Z,98.35
2022-11-26T23:51:09.939Z,98.54
2022-11-26T23:53:38.616Z,97.85
2022-11-26T23:56:08.922Z,98.23
2022-11-26T23:58:36.745Z,98.01
